Terminal Aerodrome Forecast
Issued by NWS

Home | Current Version | Previous Version | Text Only | Print | Product List | Glossary On
Versions: 1 2 3 4 5 6 7 8 9 10 11 12 13 14 15 16 17 18
000
FTUS46 KLOX 311700 RRA
TAFOXR
TAF
KOXR 311741Z 3118/0118 05006KT P6SM OVC040
     FM312000 24010KT P6SM BKN035 BKN100
     FM010200 24008KT P6SM BKN020 OVC040
     FM010400 VRB03KT P6SM -SHRA BKN015 OVC035
     FM010700 27008KT 5SM -RA BR OVC015
     FM011500 VRB03KT P6SM VCSH BKN015 OVC025=

USA.gov is the U.S. government's official web portal to all federal, state and local government web resources and services.